Terminal Aerodrome Forecast
Issued by NWS Wakefield, VA

Current Version | Previous Version | Text Only | Print | Product List | Glossary On
Versions: 1 2 3 4 5 6 7 8 9 10 11 12 13 14 15
000
FTUS41 KAKQ 201700
TAFORF
TAF
KORF 201726Z 2018/2118 21010KT P6SM BKN250
     FM210500 23006KT P6SM BKN120
     FM211100 25008KT P6SM SCT060=

USA.gov is the U.S. government's official web portal to all federal, state and local government web resources and services.